createdAt,value
2023-02-22T00:01:51.124Z,35.95
2023-02-22T00:04:21.261Z,34.13
2023-02-22T00:06:49.060Z,35.55
2023-02-22T00:09:20.765Z,35.55
2023-02-22T00:11:48.875Z,35.92
2023-02-22T00:14:18.043Z,35.30
2023-02-22T00:16:44.840Z,31.70
2023-02-22T00:19:11.463Z,36.88
2023-02-22T00:21:38.150Z,36.22
2023-02-22T00:24:23.112Z,36.15
2023-02-22T00:26:57.661Z,36.63
2023-02-22T00:29:25.556Z,36.38
2023-02-22T00:31:52.339Z,31.70
2023-02-22T00:34:19.045Z,32.75
2023-02-22T00:36:49.667Z,31.83
2023-02-22T00:39:16.440Z,37.38
2023-02-22T00:41:43.412Z,32.25
2023-02-22T00:44:10.437Z,34.88
2023-02-22T00:46:37.240Z,28.83
2023-02-22T00:49:05.318Z,32.15
2023-02-22T00:51:32.065Z,34.45
2023-02-22T00:53:58.692Z,30.35
2023-02-22T00:56:25.433Z,32.05
2023-02-22T00:58:52.113Z,35.33
2023-02-22T01:01:19.066Z,34.65
2023-02-22T01:03:46.061Z,29.67
2023-02-22T01:06:12.943Z,32.42
2023-02-22T01:08:44.399Z,29.75
2023-02-22T01:11:11.008Z,32.20
2023-02-22T01:13:38.389Z,31.63
2023-02-22T01:16:08.369Z,32.45
2023-02-22T01:18:38.104Z,32.72
2023-02-22T01:21:06.057Z,30.33
2023-02-22T01:23:33.250Z,29.75
2023-02-22T01:25:59.847Z,30.20
2023-02-22T01:28:26.752Z,28.92
2023-02-22T01:30:56.218Z,32.35
2023-02-22T01:33:23.037Z,26.75
2023-02-22T01:35:51.023Z,31.17
2023-02-22T01:38:17.690Z,28.88
2023-02-22T01:40:50.334Z,28.38
2023-02-22T01:43:29.765Z,28.65
2023-02-22T01:46:08.495Z,31.58
2023-02-22T01:48:49.639Z,30.75
2023-02-22T01:51:19.849Z,28.95
2023-02-22T01:53:52.934Z,27.25
2023-02-22T01:56:20.974Z,29.25
2023-02-22T01:58:54.083Z,29.40
2023-02-22T02:04:07.745Z,27.63
2023-02-22T02:06:35.980Z,25.25
2023-02-22T02:09:30.682Z,28.70
2023-02-22T02:12:00.970Z,25.77
2023-02-22T02:14:27.584Z,28.90
2023-02-22T02:16:56.317Z,27.00
2023-02-22T02:19:57.060Z,27.88
2023-02-22T02:22:29.943Z,27.95
2023-02-22T02:25:37.909Z,28.90
2023-02-22T02:28:26.436Z,27.90
2023-02-22T02:31:17.790Z,24.27
2023-02-22T02:33:54.820Z,30.02
2023-02-22T02:36:34.354Z,30.27
2023-02-22T02:39:29.431Z,28.27
2023-02-22T02:41:58.295Z,28.50
2023-02-22T02:44:33.124Z,27.15
2023-02-22T02:47:31.109Z,26.98
2023-02-22T02:50:07.010Z,27.92
2023-02-22T02:52:35.475Z,26.75
2023-02-22T02:55:04.124Z,28.10
2023-02-22T02:57:30.946Z,28.20
2023-02-22T02:59:57.537Z,27.48
2023-02-22T03:02:36.224Z,31.75
2023-02-22T03:05:15.224Z,29.15
2023-02-22T03:07:49.448Z,28.50
2023-02-22T03:10:52.082Z,29.05
2023-02-22T03:13:43.109Z,32.88
2023-02-22T03:16:21.312Z,29.27
2023-02-22T03:18:54.748Z,28.27
2023-02-22T03:21:28.629Z,27.88
2023-02-22T03:24:10.048Z,27.65
2023-02-22T03:27:09.529Z,26.65
2023-02-22T03:29:39.692Z,30.67
2023-02-22T03:32:11.675Z,31.38
2023-02-22T03:34:43.485Z,30.52
2023-02-22T03:37:19.926Z,29.63
2023-02-22T03:39:49.019Z,28.67
2023-02-22T03:42:23.278Z,30.45
2023-02-22T03:44:52.812Z,27.77
2023-02-22T03:47:25.888Z,27.30
2023-02-22T03:50:00.542Z,29.38
2023-02-22T03:52:27.505Z,25.88
2023-02-22T03:54:54.145Z,27.25
2023-02-22T03:57:26.827Z,26.55
2023-02-22T03:59:53.584Z,28.60
2023-02-22T04:02:20.820Z,27.60
2023-02-22T04:04:47.932Z,24.05
2023-02-22T04:07:15.004Z,28.05
2023-02-22T04:09:42.237Z,31.13
2023-02-22T04:12:09.012Z,32.88
2023-02-22T04:14:35.800Z,27.77
2023-02-22T04:17:02.324Z,27.58
2023-02-22T04:19:29.437Z,26.08
2023-02-22T04:21:56.091Z,29.58
2023-02-22T04:24:22.662Z,29.88
2023-02-22T04:26:50.173Z,31.67
2023-02-22T04:29:16.941Z,28.05
2023-02-22T04:31:43.539Z,28.23
2023-02-22T04:34:10.153Z,32.10
2023-02-22T04:36:36.794Z,28.52
2023-02-22T04:39:04.244Z,28.27
2023-02-22T04:41:31.618Z,28.02
2023-02-22T04:43:58.341Z,30.25
2023-02-22T04:46:24.933Z,27.23
2023-02-22T04:48:51.655Z,27.98
2023-02-22T04:51:19.908Z,28.88
2023-02-22T04:53:46.724Z,26.38
2023-02-22T04:56:13.320Z,26.40
2023-02-22T04:58:40.023Z,26.63
2023-02-22T05:01:06.552Z,29.15
2023-02-22T05:03:33.252Z,26.70
2023-02-22T05:05:59.873Z,28.60
2023-02-22T05:08:26.578Z,26.83
2023-02-22T05:10:53.198Z,29.17
2023-02-22T05:13:19.987Z,26.42
2023-02-22T05:15:47.861Z,25.67
2023-02-22T05:18:15.211Z,28.90
2023-02-22T05:20:41.859Z,28.05
2023-02-22T05:23:08.705Z,29.15
2023-02-22T05:25:35.424Z,27.65
2023-02-22T05:28:05.219Z,26.60
2023-02-22T05:30:35.595Z,29.60
2023-02-22T05:33:02.661Z,27.95
2023-02-22T05:35:29.481Z,27.20
2023-02-22T05:37:56.591Z,27.80
2023-02-22T05:40:26.335Z,25.23
2023-02-22T05:42:53.698Z,29.90
2023-02-22T05:45:22.812Z,27.83
2023-02-22T05:47:50.274Z,29.92
2023-02-22T05:50:19.713Z,29.55
2023-02-22T05:52:48.732Z,28.02
2023-02-22T05:55:17.393Z,27.55
2023-02-22T05:57:44.328Z,29.38
2023-02-22T06:00:16.506Z,27.33
2023-02-22T06:02:43.200Z,26.95
2023-02-22T06:05:09.867Z,29.02
2023-02-22T06:07:36.451Z,29.30
2023-02-22T06:10:03.440Z,28.67
2023-02-22T06:12:30.093Z,27.05
2023-02-22T06:14:56.716Z,25.52
2023-02-22T06:17:23.489Z,26.35
2023-02-22T06:19:50.062Z,26.08
2023-02-22T06:22:18.327Z,28.00
2023-02-22T06:24:45.306Z,26.40
2023-02-22T06:27:12.302Z,27.50
2023-02-22T06:29:38.934Z,27.38
2023-02-22T06:32:08.126Z,29.73
2023-02-22T06:34:34.755Z,29.90
2023-02-22T06:37:01.304Z,28.42
2023-02-22T06:39:27.966Z,29.25
2023-02-22T06:41:56.437Z,29.70
2023-02-22T06:44:23.865Z,29.13
2023-02-22T06:46:53.542Z,33.33
2023-02-22T06:49:20.455Z,31.75
2023-02-22T06:51:47.773Z,26.48
2023-02-22T06:54:14.926Z,27.85
2023-02-22T06:56:41.522Z,26.00
2023-02-22T06:59:08.599Z,24.33
2023-02-22T07:01:35.743Z,29.65
2023-02-22T07:04:03.014Z,27.52
2023-02-22T07:06:29.665Z,30.20
2023-02-22T07:08:56.405Z,27.17
2023-02-22T07:11:23.304Z,28.50
2023-02-22T07:13:49.997Z,28.00
2023-02-22T07:16:16.789Z,30.17
2023-02-22T07:18:43.405Z,29.13
2023-02-22T07:21:10.779Z,26.58
2023-02-22T07:23:38.460Z,30.02
2023-02-22T07:26:05.579Z,27.33
2023-02-22T07:28:32.264Z,28.75
2023-02-22T07:30:59.216Z,28.92
2023-02-22T07:33:26.929Z,31.27
2023-02-22T07:35:53.618Z,29.48
2023-02-22T07:38:21.280Z,26.80
2023-02-22T07:40:47.981Z,29.48
2023-02-22T07:43:22.586Z,33.08
2023-02-22T07:45:51.599Z,30.67
2023-02-22T07:48:19.935Z,26.23
2023-02-22T07:50:47.396Z,29.15
2023-02-22T07:53:16.935Z,29.08
2023-02-22T07:55:43.807Z,29.20
2023-02-22T07:58:15.242Z,31.05
2023-02-22T08:00:44.034Z,34.67
2023-02-22T08:03:13.143Z,32.88
2023-02-22T08:05:42.869Z,30.98
2023-02-22T08:08:09.466Z,28.35
2023-02-22T08:10:36.606Z,28.30
2023-02-22T08:13:05.219Z,32.65
2023-02-22T08:15:37.898Z,29.77
2023-02-22T08:18:09.144Z,30.15
2023-02-22T08:20:36.870Z,29.60
2023-02-22T08:23:05.892Z,29.02
2023-02-22T08:25:32.619Z,32.17
2023-02-22T08:28:02.112Z,33.13
2023-02-22T08:30:30.834Z,35.08
2023-02-22T08:32:58.583Z,34.75
2023-02-22T08:35:27.535Z,34.85
2023-02-22T08:37:57.477Z,33.17
2023-02-22T08:40:26.105Z,32.35
2023-02-22T08:42:52.708Z,32.97
2023-02-22T08:45:19.932Z,34.55
2023-02-22T08:47:47.401Z,33.63
2023-02-22T08:50:26.912Z,33.42
2023-02-22T08:52:55.909Z,29.75
2023-02-22T08:55:28.789Z,34.78
2023-02-22T08:57:55.538Z,31.95
2023-02-22T09:00:25.662Z,34.30
2023-02-22T09:02:53.103Z,33.40
2023-02-22T09:05:19.989Z,33.78
2023-02-22T09:07:46.872Z,35.65
2023-02-22T09:10:16.837Z,37.20
2023-02-22T09:12:43.481Z,37.30
2023-02-22T09:15:11.679Z,61.08
2023-02-22T09:17:38.782Z,41.42
2023-02-22T09:20:07.439Z,38.22
2023-02-22T09:22:34.261Z,39.05
2023-02-22T09:25:11.431Z,35.15
2023-02-22T09:27:43.746Z,36.22
2023-02-22T09:30:24.029Z,38.30
2023-02-22T09:32:55.558Z,39.33
2023-02-22T09:35:27.320Z,41.33
2023-02-22T09:37:58.986Z,35.42
2023-02-22T09:40:31.204Z,39.95
2023-02-22T09:43:14.241Z,32.50
2023-02-22T09:45:50.068Z,36.88
2023-02-22T09:48:22.477Z,39.50
2023-02-22T09:50:53.072Z,39.75
2023-02-22T09:53:33.152Z,34.70
2023-02-22T09:56:06.995Z,39.35
2023-02-22T09:58:40.226Z,36.70
2023-02-22T10:01:28.612Z,43.63
2023-02-22T10:04:23.350Z,37.63
2023-02-22T10:07:26.145Z,41.83
2023-02-22T10:09:56.752Z,36.88
2023-02-22T10:12:47.339Z,43.42
2023-02-22T10:15:41.900Z,40.08
2023-02-22T10:18:32.868Z,42.55
2023-02-22T10:21:11.708Z,40.47
2023-02-22T10:23:44.257Z,43.15
2023-02-22T10:26:17.024Z,38.80
2023-02-22T10:28:55.343Z,38.72
2023-02-22T10:31:36.542Z,40.72
2023-02-22T10:34:12.635Z,38.72
2023-02-22T10:36:39.325Z,37.80
2023-02-22T10:39:24.511Z,40.03
2023-02-22T10:41:55.735Z,41.78
2023-02-22T10:44:22.329Z,38.33
2023-02-22T10:46:49.843Z,42.22
2023-02-22T10:49:22.009Z,39.17
2023-02-22T10:52:01.031Z,39.67
2023-02-22T10:54:43.015Z,38.70
2023-02-22T10:57:12.166Z,38.85
2023-02-22T10:59:41.188Z,40.95
2023-02-22T11:02:23.564Z,42.25
2023-02-22T11:04:51.985Z,38.42
2023-02-22T11:07:21.915Z,38.30
2023-02-22T11:09:53.196Z,43.92
2023-02-22T11:12:48.633Z,38.67
2023-02-22T11:15:19.051Z,37.75
2023-02-22T11:17:47.685Z,40.13
2023-02-22T11:20:29.585Z,38.30
2023-02-22T11:23:01.006Z,39.05
2023-02-22T11:25:34.959Z,38.33
2023-02-22T11:28:17.617Z,42.42
2023-02-22T11:30:51.320Z,40.90
2023-02-22T11:33:23.939Z,40.00
2023-02-22T11:36:02.510Z,35.58
2023-02-22T11:38:34.544Z,38.28
2023-02-22T11:41:26.326Z,40.42
2023-02-22T11:43:54.452Z,42.90
2023-02-22T11:46:29.260Z,44.88
2023-02-22T11:49:04.811Z,38.13
2023-02-22T11:51:31.358Z,38.53
2023-02-22T11:54:28.973Z,42.08
2023-02-22T11:57:07.308Z,41.30
2023-02-22T11:59:56.138Z,38.83
2023-02-22T12:02:28.367Z,35.65
2023-02-22T12:05:10.148Z,37.75
2023-02-22T12:07:48.561Z,40.63
2023-02-22T12:10:18.685Z,34.58
2023-02-22T12:13:06.399Z,30.95
2023-02-22T12:15:47.151Z,31.60
2023-02-22T12:18:16.506Z,27.52
2023-02-22T12:21:07.995Z,30.48
2023-02-22T12:23:40.720Z,28.75
2023-02-22T12:26:34.980Z,30.85
2023-02-22T12:29:26.613Z,31.52
2023-02-22T12:32:07.028Z,34.20
2023-02-22T12:34:41.479Z,32.00
2023-02-22T12:37:23.904Z,33.35
2023-02-22T12:39:56.349Z,32.15
2023-02-22T12:43:01.623Z,28.90
2023-02-22T12:45:36.916Z,33.20
2023-02-22T12:48:27.971Z,29.95
2023-02-22T12:50:59.098Z,26.63
2023-02-22T12:53:34.911Z,28.17
2023-02-22T12:56:22.421Z,31.67
2023-02-22T12:58:55.670Z,32.05
2023-02-22T13:01:26.917Z,29.02
2023-02-22T13:03:54.382Z,31.17
2023-02-22T13:06:21.086Z,29.58
2023-02-22T13:09:02.407Z,31.60
2023-02-22T13:11:59.807Z,30.88
2023-02-22T13:14:26.575Z,31.30
2023-02-22T13:17:21.527Z,33.17
2023-02-22T13:19:54.017Z,33.13
2023-02-22T13:22:47.819Z,34.83
2023-02-22T13:25:22.822Z,30.75
2023-02-22T13:27:57.772Z,31.60
2023-02-22T13:30:36.569Z,31.10
2023-02-22T13:33:10.738Z,32.00
2023-02-22T13:35:47.490Z,32.47
2023-02-22T13:38:35.764Z,30.05
2023-02-22T13:41:05.688Z,29.40
2023-02-22T13:44:14.337Z,30.55
2023-02-22T13:46:44.179Z,26.90
2023-02-22T13:49:25.586Z,27.95
2023-02-22T13:51:56.782Z,30.50
2023-02-22T13:54:35.454Z,28.48
2023-02-22T13:57:05.358Z,32.10
2023-02-22T13:59:36.395Z,32.80
2023-02-22T14:02:08.217Z,26.90
2023-02-22T16:01:42.028Z,23.30
2023-02-22T16:04:18.261Z,21.33
2023-02-22T16:06:45.802Z,20.63
2023-02-22T16:09:22.978Z,21.13
2023-02-22T16:11:50.135Z,24.05
2023-02-22T16:14:39.395Z,21.45
2023-02-22T16:17:24.922Z,22.23
2023-02-22T16:19:52.866Z,19.88
2023-02-22T16:22:35.405Z,23.15
2023-02-22T16:25:25.255Z,19.00
2023-02-22T16:27:56.127Z,18.85
2023-02-22T16:33:21.968Z,16.88
2023-02-22T16:35:57.101Z,18.63
2023-02-22T16:38:27.684Z,17.15
2023-02-22T16:40:59.425Z,21.38
2023-02-22T16:43:31.602Z,16.50
2023-02-22T16:45:58.918Z,17.67
2023-02-22T16:48:27.473Z,19.77
2023-02-22T16:50:55.934Z,19.77
2023-02-22T16:53:25.322Z,19.95
2023-02-22T16:55:57.833Z,20.23
2023-02-22T16:58:28.004Z,18.95
2023-02-22T17:00:57.296Z,24.25
2023-02-22T17:03:25.483Z,20.17
2023-02-22T17:05:52.344Z,22.00
2023-02-22T17:08:19.115Z,23.67
2023-02-22T17:10:46.518Z,22.35
2023-02-22T17:13:23.026Z,23.55
2023-02-22T17:15:51.624Z,23.67
2023-02-22T17:18:22.987Z,22.52
2023-02-22T17:20:51.617Z,22.88
2023-02-22T17:23:20.226Z,23.13
2023-02-22T17:26:03.358Z,26.08
2023-02-22T17:28:31.139Z,23.33
2023-02-22T17:31:01.233Z,21.60
2023-02-22T17:33:31.304Z,27.75
2023-02-22T17:36:01.783Z,22.83
2023-02-22T17:38:30.308Z,24.05
2023-02-22T17:40:59.030Z,23.45
2023-02-22T17:43:27.938Z,23.65
2023-02-22T17:45:55.079Z,22.88
2023-02-22T17:48:24.029Z,24.63
2023-02-22T17:50:51.724Z,21.40
2023-02-22T17:53:21.790Z,23.27
2023-02-22T17:55:49.514Z,25.88
2023-02-22T17:58:16.391Z,25.67
2023-02-22T18:00:46.261Z,25.60
2023-02-22T18:03:21.814Z,23.48
2023-02-22T18:05:50.405Z,26.42
2023-02-22T18:08:17.616Z,24.45
2023-02-22T18:10:45.520Z,25.05
2023-02-22T18:13:18.729Z,26.17
2023-02-22T18:15:46.937Z,23.95
2023-02-22T18:18:13.691Z,27.75
2023-02-22T18:20:45.106Z,25.02
2023-02-22T18:23:16.163Z,21.35
2023-02-22T18:26:03.728Z,21.77
2023-02-22T18:28:35.823Z,23.55
2023-02-22T18:31:07.728Z,24.65
2023-02-22T18:33:34.313Z,21.98
2023-02-22T18:36:00.897Z,26.17
2023-02-22T18:38:27.594Z,27.38
2023-02-22T18:41:06.261Z,26.15
2023-02-22T18:43:36.417Z,26.38
2023-02-22T18:46:10.095Z,25.15
2023-02-22T18:48:37.585Z,25.42
2023-02-22T18:51:07.223Z,25.75
2023-02-22T18:53:33.897Z,23.35
2023-02-22T18:56:08.880Z,28.65
2023-02-22T18:58:38.633Z,25.73
2023-02-22T19:01:07.164Z,25.83
2023-02-22T19:03:38.126Z,26.52
2023-02-22T19:06:10.470Z,24.20
2023-02-22T19:08:42.328Z,21.33
2023-02-22T19:11:18.004Z,24.05
2023-02-22T19:13:50.838Z,22.83
2023-02-22T19:16:22.256Z,27.00
2023-02-22T19:18:57.097Z,26.45
2023-02-22T19:21:25.163Z,24.13
2023-02-22T19:23:51.846Z,25.33
2023-02-22T19:26:24.227Z,28.20
2023-02-22T19:28:52.831Z,28.90
2023-02-22T19:31:26.488Z,29.88
2023-02-22T19:33:53.507Z,23.67
2023-02-22T19:36:23.124Z,24.70
2023-02-22T19:38:49.932Z,24.73
2023-02-22T19:41:21.927Z,25.73
2023-02-22T19:43:50.726Z,23.30
2023-02-22T19:46:17.939Z,23.75
2023-02-22T19:48:48.716Z,23.90
2023-02-22T19:51:17.182Z,26.40
2023-02-22T19:53:44.923Z,29.88
2023-02-22T19:56:16.321Z,28.50
2023-02-22T19:58:44.673Z,26.00
2023-02-22T20:01:12.592Z,22.95
2023-02-22T20:03:39.604Z,25.73
2023-02-22T20:06:09.200Z,32.05
2023-02-22T20:08:37.317Z,26.83
2023-02-22T20:11:05.814Z,27.40
2023-02-22T20:13:33.537Z,27.35
2023-02-22T20:16:00.613Z,32.92
2023-02-22T20:18:27.235Z,26.67
2023-02-22T20:20:53.914Z,27.88
2023-02-22T20:23:20.602Z,28.73
2023-02-22T20:25:57.038Z,47.45
2023-02-22T20:28:24.290Z,40.28
2023-02-22T20:30:51.779Z,29.50
2023-02-22T20:33:22.074Z,29.05
2023-02-22T20:35:48.839Z,29.73
2023-02-22T20:38:15.492Z,107.95
2023-02-22T20:40:42.595Z,74.68
2023-02-22T20:43:10.045Z,46.15
2023-02-22T20:45:37.690Z,45.50
2023-02-22T20:48:05.410Z,34.90
2023-02-22T20:50:33.175Z,33.97
2023-02-22T20:52:59.790Z,29.15
2023-02-22T20:55:26.627Z,30.83
2023-02-22T20:57:53.358Z,30.50
2023-02-22T21:00:19.996Z,27.67
2023-02-22T21:02:46.989Z,30.63
2023-02-22T21:05:16.487Z,29.13
2023-02-22T21:07:43.127Z,27.17
2023-02-22T21:10:09.871Z,31.42
2023-02-22T21:12:36.758Z,28.33
2023-02-22T21:15:03.706Z,28.63
2023-02-22T21:17:30.978Z,28.02
2023-02-22T21:19:58.647Z,29.83
2023-02-22T21:22:25.393Z,30.20
2023-02-22T21:24:52.253Z,27.27
2023-02-22T21:27:19.223Z,29.83
2023-02-22T21:29:45.859Z,27.42
2023-02-22T21:32:13.960Z,31.52
2023-02-22T21:34:40.947Z,26.38
2023-02-22T21:37:08.402Z,30.20
2023-02-22T21:39:35.576Z,29.70
2023-02-22T21:42:02.639Z,32.55
2023-02-22T21:44:29.973Z,28.30
2023-02-22T21:46:58.133Z,30.15
2023-02-22T21:49:26.360Z,29.08
2023-02-22T21:51:53.047Z,30.77
2023-02-22T21:54:20.102Z,29.10
2023-02-22T21:56:46.812Z,28.50
2023-02-22T21:59:18.815Z,32.90
2023-02-22T22:01:48.256Z,31.88
2023-02-22T22:04:20.212Z,31.40
2023-02-22T22:06:49.149Z,31.95
2023-02-22T22:09:18.738Z,28.23
2023-02-22T22:11:50.857Z,29.67
2023-02-22T22:14:23.168Z,26.60
2023-02-22T22:16:51.503Z,28.08
2023-02-22T22:19:18.338Z,28.00
2023-02-22T22:21:46.720Z,31.58
2023-02-22T22:24:13.503Z,31.23
2023-02-22T22:26:40.405Z,32.50
2023-02-22T22:29:10.487Z,32.88
2023-02-22T22:31:37.638Z,29.23
2023-02-22T22:34:05.028Z,34.58
2023-02-22T22:36:31.868Z,27.73
2023-02-22T22:38:58.474Z,28.48
2023-02-22T22:41:28.241Z,31.85
2023-02-22T22:43:55.512Z,32.92
2023-02-22T22:46:22.272Z,29.02
2023-02-22T22:48:48.942Z,30.13
2023-02-22T22:51:20.440Z,25.67
2023-02-22T22:53:49.150Z,31.15
2023-02-22T22:56:26.966Z,30.42
2023-02-22T22:58:56.158Z,28.83
2023-02-22T23:01:28.666Z,29.98
2023-02-22T23:04:03.669Z,30.75
2023-02-22T23:06:43.950Z,31.95
2023-02-22T23:09:19.564Z,31.35
2023-02-22T23:11:51.033Z,27.85
2023-02-22T23:14:20.734Z,30.10
2023-02-22T23:16:53.074Z,29.70
2023-02-22T23:19:20.292Z,26.85
2023-02-22T23:21:48.550Z,29.95
2023-02-22T23:24:17.699Z,30.38
2023-02-22T23:26:48.741Z,29.42
2023-02-22T23:29:20.713Z,28.70
2023-02-22T23:31:48.706Z,29.15
2023-02-22T23:34:21.487Z,31.90
2023-02-22T23:36:48.819Z,31.92
2023-02-22T23:39:17.985Z,28.98
2023-02-22T23:41:44.689Z,28.92
2023-02-22T23:44:17.425Z,29.30
2023-02-22T23:46:57.084Z,31.88
2023-02-22T23:55:20.917Z,31.38
2023-02-22T23:57:48.629Z,26.63
